Time,TemperatureF,DewpointF,PressureIn,WindDirection,WindDirectionDegrees,WindSpeedMPH,WindSpeedGustMPH,Humidity,HourlyPrecipIn,Conditions,Clouds,dailyrainin,SoftwareType,DateUTC
2013-07-21 00:09:00,71.5,70.0,29.96,NE,47,0.0,-999.0,95,-99.99,,,0.00,weatherlink.com 1.10,2013-07-21 05:09:00,
2013-07-21 00:24:00,71.4,70.0,29.96,NE,47,0.0,-999.0,95,-99.99,,,0.00,weatherlink.com 1.10,2013-07-21 05:24:00,
2013-07-21 00:39:00,71.2,70.0,29.96,NE,47,0.0,-999.0,95,-99.99,,,0.00,weatherlink.com 1.10,2013-07-21 05:39:00,
2013-07-21 00:54:00,71.3,70.0,29.95,NE,47,0.0,-999.0,95,-99.99,,,0.00,weatherlink.com 1.10,2013-07-21 05:54:00,
2013-07-21 01:09:00,71.3,70.0,29.95,NE,47,0.0,-999.0,95,-99.99,,,0.00,weatherlink.com 1.10,2013-07-21 06:09:00,
2013-07-21 01:24:00,71.3,70.0,29.95,NE,47,0.0,-999.0,95,-99.99,,,0.00,weatherlink.com 1.10,2013-07-21 06:24:00,
2013-07-21 01:39:00,71.2,70.0,29.94,NE,47,0.0,-999.0,95,-99.99,,,0.00,weatherlink.com 1.10,2013-07-21 06:39:00,
2013-07-21 01:54:00,71.0,70.0,29.94,NE,47,0.0,-999.0,95,-99.99,,,0.00,weatherlink.com 1.10,2013-07-21 06:54:00,
2013-07-21 02:09:00,71.0,70.0,29.95,NE,47,0.0,-999.0,96,-99.99,,,0.00,weatherlink.com 1.10,2013-07-21 07:09:00,
2013-07-21 02:24:00,71.0,70.0,29.94,NE,47,0.0,-999.0,96,-99.99,,,0.00,weatherlink.com 1.10,2013-07-21 07:24:00,
2013-07-21 02:39:00,70.9,70.0,29.93,NE,47,0.0,-999.0,96,-99.99,,,0.00,weatherlink.com 1.10,2013-07-21 07:39:00,
2013-07-21 02:54:00,70.8,69.0,29.93,NE,47,0.0,-999.0,95,-99.99,,,0.00,weatherlink.com 1.10,2013-07-21 07:54:00,
2013-07-21 03:09:00,70.8,70.0,29.93,NE,47,0.0,-999.0,96,-99.99,,,0.00,weatherlink.com 1.10,2013-07-21 08:09:00,
2013-07-21 03:24:00,70.7,69.0,29.93,NE,47,0.0,-999.0,95,-99.99,,,0.00,weatherlink.com 1.10,2013-07-21 08:24:00,
2013-07-21 03:39:00,70.5,69.0,29.93,NE,47,0.0,-999.0,95,-99.99,,,0.00,weatherlink.com 1.10,2013-07-21 08:39:00,
2013-07-21 03:54:00,70.4,69.0,29.94,NE,47,0.0,-999.0,96,-99.99,,,0.00,weatherlink.com 1.10,2013-07-21 08:54:00,
2013-07-21 04:09:00,70.3,69.0,29.95,NE,47,0.0,-999.0,96,-99.99,,,0.00,weatherlink.com 1.10,2013-07-21 09:09:00,
2013-07-21 04:24:00,70.4,69.0,29.94,NE,47,0.0,-999.0,96,-99.99,,,0.00,weatherlink.com 1.10,2013-07-21 09:24:00,
2013-07-21 04:39:00,70.6,70.0,29.95,NE,47,0.0,-999.0,96,-99.99,,,0.00,weatherlink.com 1.10,2013-07-21 09:39:00,
2013-07-21 04:54:00,70.7,70.0,29.95,NE,47,0.0,-999.0,96,-99.99,,,0.00,weatherlink.com 1.10,2013-07-21 09:54:00,
2013-07-21 05:09:00,70.9,70.0,29.95,NE,47,0.0,-999.0,96,-99.99,,,0.00,weatherlink.com 1.10,2013-07-21 10:09:00,
2013-07-21 05:24:00,71.0,70.0,29.95,NE,47,0.0,-999.0,96,-99.99,,,0.00,weatherlink.com 1.10,2013-07-21 10:24:00,
2013-07-21 05:39:00,71.1,70.0,29.95,South,182,0.0,-999.0,96,-99.99,,,0.00,weatherlink.com 1.10,2013-07-21 10:39:00,
2013-07-21 05:54:00,71.6,70.0,29.95,SSW,213,0.0,-999.0,96,-99.99,,,0.00,weatherlink.com 1.10,2013-07-21 10:54:00,
2013-07-21 06:09:00,72.1,71.0,29.95,South,182,0.0,-999.0,96,-99.99,,,0.00,weatherlink.com 1.10,2013-07-21 11:09:00,
2013-07-21 06:24:00,72.5,72.0,29.96,SW,227,0.0,-999.0,97,-99.99,,,0.00,weatherlink.com 1.10,2013-07-21 11:24:00,
2013-07-21 06:39:00,72.8,72.0,29.96,South,190,0.0,-999.0,96,-99.99,,,0.00,weatherlink.com 1.10,2013-07-21 11:39:00,
2013-07-21 06:54:00,73.0,72.0,29.97,SSW,200,0.0,-999.0,96,-99.99,,,0.00,weatherlink.com 1.10,2013-07-21 11:54:00,
2013-07-21 07:09:00,73.3,72.0,29.97,SSW,202,0.0,-999.0,96,-99.99,,,0.00,weatherlink.com 1.10,2013-07-21 12:09:00,
2013-07-21 07:24:00,73.7,73.0,29.98,SSW,208,2.0,-999.0,96,-99.99,,,0.00,weatherlink.com 1.10,2013-07-21 12:24:00,
2013-07-21 07:39:00,74.0,73.0,29.98,WNW,299,0.0,-999.0,95,-99.99,,,0.00,weatherlink.com 1.10,2013-07-21 12:39:00,
2013-07-21 07:54:00,74.4,73.0,29.98,WSW,257,0.0,-999.0,95,-99.99,,,0.00,weatherlink.com 1.10,2013-07-21 12:54:00,
2013-07-21 08:09:00,74.7,73.0,29.99,SW,230,2.0,-999.0,94,-99.99,,,0.00,weatherlink.com 1.10,2013-07-21 13:09:00,
2013-07-21 08:24:00,74.9,73.0,29.99,SW,234,0.0,-999.0,94,-99.99,,,0.00,weatherlink.com 1.10,2013-07-21 13:24:00,
2013-07-21 08:39:00,75.1,73.0,29.99,West,259,0.0,-999.0,94,-99.99,,,0.00,weatherlink.com 1.10,2013-07-21 13:39:00,
2013-07-21 08:54:00,75.8,74.0,29.98,SSW,203,2.0,-999.0,93,-99.99,,,0.00,weatherlink.com 1.10,2013-07-21 13:54:00,
2013-07-21 09:09:00,77.9,75.0,29.98,SE,140,1.0,-999.0,89,-99.99,,,0.00,weatherlink.com 1.10,2013-07-21 14:09:00,
2013-07-21 09:24:00,80.1,75.0,29.98,South,178,1.0,-999.0,84,-99.99,,,0.00,weatherlink.com 1.10,2013-07-21 14:24:00,
2013-07-21 09:40:00,80.6,75.0,29.97,WSW,246,1.0,-999.0,84,-99.99,,,0.00,weatherlink.com 1.10,2013-07-21 14:40:00,
2013-07-21 09:55:00,81.0,75.0,29.98,South,190,3.0,-999.0,82,-99.99,,,0.00,weatherlink.com 1.10,2013-07-21 14:55:00,
2013-07-21 10:10:00,82.7,76.0,29.98,West,265,1.0,-999.0,79,-99.99,,,0.00,weatherlink.com 1.10,2013-07-21 15:10:00,
2013-07-21 10:25:00,82.8,75.0,29.98,South,187,5.0,-999.0,77,-99.99,,,0.00,weatherlink.com 1.10,2013-07-21 15:25:00,
2013-07-21 10:40:00,83.2,75.0,29.97,SSE,159,0.0,-999.0,77,-99.99,,,0.00,weatherlink.com 1.10,2013-07-21 15:40:00,
2013-07-21 10:55:00,84.6,76.0,29.97,ENE,77,1.0,-999.0,75,-99.99,,,0.00,weatherlink.com 1.10,2013-07-21 15:55:00,
2013-07-21 11:10:00,84.4,75.0,29.97,WNW,297,2.0,-999.0,74,-99.99,,,0.00,weatherlink.com 1.10,2013-07-21 16:10:00,
2013-07-21 11:25:00,84.8,75.0,29.97,NNW,333,0.0,-999.0,73,-99.99,,,0.00,weatherlink.com 1.10,2013-07-21 16:25:00,
2013-07-21 11:40:00,86.0,76.0,29.96,SSE,166,2.0,-999.0,71,-99.99,,,0.00,weatherlink.com 1.10,2013-07-21 16:40:00,
2013-07-21 11:55:00,86.6,77.0,29.95,SSW,194,3.0,-999.0,72,-99.99,,,0.00,weatherlink.com 1.10,2013-07-21 16:55:00,
2013-07-21 12:10:00,87.0,76.0,29.94,East,98,0.0,-999.0,69,-99.99,,,0.00,weatherlink.com 1.10,2013-07-21 17:10:00,
2013-07-21 12:25:00,86.1,76.0,29.95,NW,319,3.0,-999.0,71,-99.99,,,0.00,weatherlink.com 1.10,2013-07-21 17:25:00,
2013-07-21 12:40:00,79.9,74.0,29.96,ENE,62,4.0,-999.0,83,-99.99,,,0.02,weatherlink.com 1.10,2013-07-21 17:40:00,
2013-07-21 12:55:00,77.0,73.0,29.94,East,96,6.0,-999.0,86,-99.99,,,0.02,weatherlink.com 1.10,2013-07-21 17:55:00,
2013-07-21 13:10:00,75.9,72.0,29.94,East,94,2.0,-999.0,87,-99.99,,,0.02,weatherlink.com 1.10,2013-07-21 18:10:00,
2013-07-21 13:25:00,76.2,73.0,29.94,SE,134,1.0,-999.0,88,-99.99,,,0.02,weatherlink.com 1.10,2013-07-21 18:25:00,
2013-07-21 13:40:00,76.5,72.0,29.93,SSE,153,5.0,-999.0,87,-99.99,,,0.02,weatherlink.com 1.10,2013-07-21 18:40:00,
2013-07-21 13:55:00,77.0,73.0,29.93,SSE,154,5.0,-999.0,87,-99.99,,,0.02,weatherlink.com 1.10,2013-07-21 18:55:00,
2013-07-21 14:10:00,76.7,73.0,29.93,East,101,4.0,-999.0,88,-99.99,,,0.02,weatherlink.com 1.10,2013-07-21 19:10:00,
2013-07-21 14:25:00,75.8,72.0,29.93,SE,143,9.0,-999.0,88,-99.99,,,0.02,weatherlink.com 1.10,2013-07-21 19:25:00,
2013-07-21 14:40:00,74.9,72.0,29.92,SSE,151,6.0,-999.0,89,-99.99,,,0.02,weatherlink.com 1.10,2013-07-21 19:40:00,
2013-07-21 14:55:00,75.1,72.0,29.91,WSW,256,1.0,-999.0,90,-99.99,,,0.02,weatherlink.com 1.10,2013-07-21 19:55:00,
2013-07-21 15:10:00,75.9,73.0,29.90,West,265,0.0,-999.0,91,-99.99,,,0.03,weatherlink.com 1.10,2013-07-21 20:10:00,
2013-07-21 15:25:00,77.5,74.0,29.89,South,172,0.0,-999.0,89,-99.99,,,0.03,weatherlink.com 1.10,2013-07-21 20:25:00,
2013-07-21 15:40:00,79.4,74.0,29.89,South,169,1.0,-999.0,84,-99.99,,,0.03,weatherlink.com 1.10,2013-07-21 20:40:00,
2013-07-21 15:55:00,80.4,75.0,29.91,WSW,258,1.0,-999.0,82,-99.99,,,0.03,weatherlink.com 1.10,2013-07-21 20:55:00,
2013-07-21 16:10:00,80.2,74.0,29.91,WSW,247,0.0,-999.0,82,-99.99,,,0.03,weatherlink.com 1.10,2013-07-21 21:10:00,
2013-07-21 16:25:00,80.2,75.0,29.91,SSE,168,0.0,-999.0,84,-99.99,,,0.03,weatherlink.com 1.10,2013-07-21 21:25:00,
2013-07-21 16:40:00,80.3,74.0,29.90,SSE,168,0.0,-999.0,82,-99.99,,,0.03,weatherlink.com 1.10,2013-07-21 21:40:00,
2013-07-21 16:55:00,80.7,74.0,29.90,SE,137,0.0,-999.0,81,-99.99,,,0.03,weatherlink.com 1.10,2013-07-21 21:55:00,
2013-07-21 17:10:00,81.3,75.0,29.90,SSE,147,0.0,-999.0,82,-99.99,,,0.03,weatherlink.com 1.10,2013-07-21 22:10:00,
2013-07-21 17:25:00,81.3,75.0,29.91,ENE,65,0.0,-999.0,81,-99.99,,,0.03,weatherlink.com 1.10,2013-07-21 22:25:00,
2013-07-21 17:40:00,80.0,73.0,29.91,NE,35,4.0,-999.0,79,-99.99,,,0.03,weatherlink.com 1.10,2013-07-21 22:40:00,
2013-07-21 17:55:00,78.9,73.0,29.92,NNE,31,0.0,-999.0,81,-99.99,,,0.03,weatherlink.com 1.10,2013-07-21 22:55:00,
2013-07-21 18:10:00,76.8,72.0,29.95,NNE,31,2.0,-999.0,85,-99.99,,,0.03,weatherlink.com 1.10,2013-07-21 23:10:00,
2013-07-21 18:25:00,74.4,71.0,29.95,SW,219,1.0,-999.0,90,-99.99,,,0.41,weatherlink.com 1.10,2013-07-21 23:25:00,
2013-07-21 18:40:00,72.4,69.0,29.93,ENE,71,4.0,-999.0,90,-99.99,,,0.61,weatherlink.com 1.10,2013-07-21 23:40:00,
2013-07-21 18:55:00,71.2,69.0,29.94,South,186,4.0,-999.0,93,-99.99,,,0.65,weatherlink.com 1.10,2013-07-21 23:55:00,
2013-07-21 19:10:00,70.8,69.0,29.97,WNW,294,1.0,-999.0,94,-99.99,,,0.65,weatherlink.com 1.10,2013-07-22 00:10:00,
2013-07-21 19:25:00,70.6,69.0,29.98,SW,236,4.0,-999.0,95,-99.99,,,0.69,weatherlink.com 1.10,2013-07-22 00:25:00,
2013-07-21 19:40:00,70.8,69.0,29.98,West,270,0.0,-999.0,95,-99.99,,,0.77,weatherlink.com 1.10,2013-07-22 00:40:00,
2013-07-21 19:55:00,70.9,70.0,29.97,South,178,1.0,-999.0,95,-99.99,,,0.83,weatherlink.com 1.10,2013-07-22 00:55:00,
2013-07-21 20:10:00,70.8,69.0,29.96,South,180,0.0,-999.0,95,-99.99,,,0.86,weatherlink.com 1.10,2013-07-22 01:10:00,
2013-07-21 20:25:00,70.5,69.0,29.96,South,180,0.0,-999.0,95,-99.99,,,0.89,weatherlink.com 1.10,2013-07-22 01:25:00,
2013-07-21 20:40:00,70.5,69.0,29.96,South,180,1.0,-999.0,96,-99.99,,,0.92,weatherlink.com 1.10,2013-07-22 01:40:00,
2013-07-21 20:55:00,70.5,69.0,29.97,South,180,0.0,-999.0,96,-99.99,,,0.93,weatherlink.com 1.10,2013-07-22 01:55:00,
2013-07-21 21:10:00,70.4,69.0,29.96,South,180,0.0,-999.0,96,-99.99,,,0.94,weatherlink.com 1.10,2013-07-22 02:10:00,
2013-07-21 21:25:00,70.3,69.0,29.96,South,180,0.0,-999.0,96,-99.99,,,0.94,weatherlink.com 1.10,2013-07-22 02:25:00,
2013-07-21 21:40:00,70.2,69.0,29.97,South,180,0.0,-999.0,96,-99.99,,,0.94,weatherlink.com 1.10,2013-07-22 02:40:00,
2013-07-21 21:55:00,70.2,69.0,29.97,South,180,0.0,-999.0,96,-99.99,,,0.94,weatherlink.com 1.10,2013-07-22 02:55:00,
2013-07-21 22:10:00,70.2,69.0,29.98,SSW,193,0.0,-999.0,96,-99.99,,,0.94,weatherlink.com 1.10,2013-07-22 03:10:00,
2013-07-21 22:25:00,70.4,69.0,29.99,SW,225,1.0,-999.0,96,-99.99,,,0.94,weatherlink.com 1.10,2013-07-22 03:25:00,
2013-07-21 22:40:00,70.4,69.0,29.98,SSW,196,0.0,-999.0,96,-99.99,,,0.94,weatherlink.com 1.10,2013-07-22 03:40:00,
2013-07-21 22:55:00,70.4,69.0,29.98,West,259,0.0,-999.0,96,-99.99,,,0.94,weatherlink.com 1.10,2013-07-22 03:55:00,
2013-07-21 23:10:00,70.3,69.0,29.97,SW,218,3.0,-999.0,96,-99.99,,,0.95,weatherlink.com 1.10,2013-07-22 04:10:00,
2013-07-21 23:25:00,70.1,69.0,29.96,SW,220,3.0,-999.0,96,-99.99,,,0.95,weatherlink.com 1.10,2013-07-22 04:25:00,
2013-07-21 23:40:00,69.9,69.0,29.96,West,272,0.0,-999.0,96,-99.99,,,0.95,weatherlink.com 1.10,2013-07-22 04:40:00,
2013-07-21 23:55:00,69.9,69.0,29.95,SE,143,1.0,-999.0,96,-99.99,,,0.95,weatherlink.com 1.10,2013-07-22 04:55:00,